Time;durP1;ratioP1;P1;durP2;ratioP2;P2;SDS_P1;SDS_P2;PMS_P1;PMS_P2;Temp;Humidity;BMP_temperature;BMP_pressure;BME280_temperature;BME280_humidity;BME280_pressure;Samples;Min_cycle;Max_cycle;Signal;HPM_P1;HPM_P2
2023/09/02 00:02:13;;;;;;;13.23;7.15;;;13.50;99.90;;;;;;5045252;28;20136;-67
2023/09/02 00:04:39;;;;;;;12.93;7.68;;;13.50;99.90;;;;;;5026266;28;20056;-65
2023/09/02 00:07:05;;;;;;;12.05;7.25;;;13.50;99.90;;;;;;5026479;28;20040;-66
2023/09/02 00:09:30;;;;;;;12.05;8.55;;;13.50;99.90;;;;;;5055399;28;20037;-68
2023/09/02 00:11:56;;;;;;;14.55;7.45;;;13.50;99.90;;;;;;5064428;28;20048;-64
2023/09/02 00:14:21;;;;;;;11.77;7.63;;;13.50;99.90;;;;;;5063428;28;20048;-67
2023/09/02 00:16:47;;;;;;;15.68;9.05;;;13.50;99.90;;;;;;5061995;28;20043;-65
2023/09/02 00:19:12;;;;;;;13.40;8.38;;;13.50;99.90;;;;;;5096508;28;20049;-65
2023/09/02 00:21:38;;;;;;;13.57;8.68;;;13.40;99.90;;;;;;5061902;28;20039;-66
2023/09/02 00:24:07;;;;;;;14.65;8.07;;;13.50;99.90;;;;;;5026188;28;20057;-67
2023/09/02 00:26:33;;;;;;;12.90;8.00;;;13.40;99.90;;;;;;5042160;28;20048;-65
2023/09/02 00:29:00;;;;;;;13.02;8.38;;;13.30;99.90;;;;;;5044114;28;20047;-65
2023/09/02 00:31:26;;;;;;;17.45;9.15;;;13.30;99.90;;;;;;5030200;28;20107;-65
2023/09/02 00:33:52;;;;;;;12.32;6.95;;;13.30;99.90;;;;;;5026297;28;20033;-66
2023/09/02 00:36:18;;;;;;;13.95;7.60;;;13.20;99.90;;;;;;5044758;28;20036;-64
2023/09/02 00:38:44;;;;;;;14.88;7.10;;;13.20;99.90;;;;;;5058952;28;20094;-63
2023/09/02 00:41:18;;;;;;;15.23;7.57;;;13.20;99.90;;;;;;5047739;28;20052;-64
2023/09/02 00:43:44;;;;;;;11.45;7.22;;;13.20;99.90;;;;;;5046867;28;20125;-63
2023/09/02 00:46:09;;;;;;;12.70;7.80;;;13.30;99.90;;;;;;5046908;28;20466;-63
2023/09/02 00:48:36;;;;;;;12.05;7.35;;;13.20;99.90;;;;;;5043718;28;20040;-64
2023/09/02 00:51:02;;;;;;;13.25;8.40;;;13.30;99.90;;;;;;5048065;28;20052;-64
2023/09/02 00:53:28;;;;;;;12.95;8.80;;;13.30;99.90;;;;;;5050273;28;20044;-64
2023/09/02 00:55:54;;;;;;;12.70;8.77;;;13.20;99.90;;;;;;5066954;28;20385;-65
2023/09/02 00:58:20;;;;;;;16.75;9.13;;;13.20;99.90;;;;;;5067630;28;20387;-64
2023/09/02 01:00:50;;;;;;;14.32;7.55;;;13.20;99.90;;;;;;5067912;28;20056;-65
2023/09/02 01:03:15;;;;;;;14.50;8.65;;;13.20;99.90;;;;;;5062319;28;20055;-65
2023/09/02 01:05:41;;;;;;;14.95;9.18;;;13.10;99.90;;;;;;5067356;28;20407;-65
2023/09/02 01:08:07;;;;;;;18.25;8.85;;;13.00;99.90;;;;;;5062818;28;20033;-64
2023/09/02 01:10:37;;;;;;;13.70;7.70;;;13.00;99.90;;;;;;5067115;28;20365;-64
2023/09/02 01:13:04;;;;;;;16.92;9.77;;;13.00;99.90;;;;;;5065740;28;20046;-64
2023/09/02 01:15:31;;;;;;;14.25;7.65;;;13.00;99.90;;;;;;5064302;28;20032;-64
2023/09/02 01:17:57;;;;;;;11.82;7.53;;;13.00;99.90;;;;;;5066178;28;20049;-64
2023/09/02 01:20:27;;;;;;;15.15;8.93;;;12.90;99.90;;;;;;5059717;28;20101;-64
2023/09/02 01:23:07;;;;;;;14.70;8.23;;;12.90;99.90;;;;;;5045918;28;20049;-64
2023/09/02 01:25:58;;;;;;;13.10;7.47;;;12.90;99.90;;;;;;5041592;28;20053;-64
2023/09/02 01:28:31;;;;;;;13.50;8.30;;;12.80;99.90;;;;;;5032283;28;20052;-64
2023/09/02 01:30:59;;;;;;;12.00;8.50;;;12.80;99.90;;;;;;5034462;28;20045;-64
2023/09/02 01:33:26;;;;;;;12.95;7.72;;;12.80;99.90;;;;;;5025763;28;20052;-66
2023/09/02 01:35:53;;;;;;;14.98;7.53;;;12.80;99.90;;;;;;5097350;28;20565;-65
2023/09/02 01:38:22;;;;;;;14.38;8.75;;;12.80;99.90;;;;;;5062859;28;20110;-65
2023/09/02 01:40:50;;;;;;;17.48;9.02;;;12.80;99.90;;;;;;5045001;28;20052;-64
2023/09/02 01:43:20;;;;;;;13.50;7.35;;;12.80;99.90;;;;;;5044504;28;20361;-66
2023/09/02 01:45:46;;;;;;;11.15;7.07;;;12.80;99.90;;;;;;5045176;28;20051;-65
2023/09/02 01:48:13;;;;;;;14.00;7.55;;;12.80;99.90;;;;;;5045275;28;20155;-65
2023/09/02 01:50:40;;;;;;;12.15;6.50;;;12.80;99.90;;;;;;5041357;28;20072;-64
2023/09/02 01:53:05;;;;;;;9.35;5.80;;;12.70;99.90;;;;;;5045430;28;20068;-63
2023/09/02 01:55:32;;;;;;;12.02;7.43;;;12.70;99.90;;;;;;5065834;28;20574;-65
2023/09/02 01:57:59;;;;;;;14.00;9.15;;;12.70;99.90;;;;;;5062313;28;20040;-64
2023/09/02 02:00:25;;;;;;;14.82;8.88;;;12.70;99.90;;;;;;5029024;28;20044;-64
2023/09/02 02:02:53;;;;;;;14.57;8.52;;;12.70;99.90;;;;;;5047062;28;20701;-64
2023/09/02 02:05:27;;;;;;;13.13;7.95;;;12.70;99.90;;;;;;5044643;28;20056;-65
2023/09/02 02:07:58;;;;;;;15.18;9.70;;;12.80;99.90;;;;;;5052202;28;20056;-66
2023/09/02 02:10:27;;;;;;;13.13;8.25;;;12.70;99.90;;;;;;5047573;28;20044;-64
2023/09/02 02:12:53;;;;;;;12.70;8.48;;;12.80;99.90;;;;;;5064719;28;20056;-65
2023/09/02 02:15:19;;;;;;;16.55;9.57;;;12.80;99.90;;;;;;5064793;28;20048;-65
2023/09/02 02:17:44;;;;;;;20.80;10.52;;;12.80;99.90;;;;;;5052460;28;20131;-66
2023/09/02 02:20:10;;;;;;;18.45;11.45;;;12.70;99.90;;;;;;5028402;28;20055;-64
2023/09/02 02:22:36;;;;;;;16.45;10.85;;;12.80;99.90;;;;;;5028171;28;20937;-64
2023/09/02 02:25:01;;;;;;;18.17;11.30;;;12.70;99.90;;;;;;5059773;28;20490;-64
2023/09/02 02:27:27;;;;;;;18.30;9.82;;;12.70;99.90;;;;;;5064547;28;20080;-65
2023/09/02 02:29:53;;;;;;;15.95;9.88;;;12.80;99.90;;;;;;5044593;28;20037;-65
2023/09/02 02:32:19;;;;;;;19.58;10.70;;;12.80;99.90;;;;;;5045816;28;20044;-65
2023/09/02 02:34:45;;;;;;;15.50;9.50;;;12.70;99.90;;;;;;5062280;28;20041;-66
2023/09/02 02:37:10;;;;;;;18.30;9.73;;;12.70;99.90;;;;;;5064406;28;20372;-67
2023/09/02 02:39:36;;;;;;;17.33;10.32;;;12.70;99.90;;;;;;5048127;28;20364;-63
2023/09/02 02:42:02;;;;;;;16.23;9.35;;;12.70;99.90;;;;;;5044442;28;20077;-64
2023/09/02 02:44:27;;;;;;;15.38;9.50;;;12.60;99.90;;;;;;5044274;28;20040;-64
2023/09/02 02:46:53;;;;;;;16.02;9.85;;;12.60;99.90;;;;;;5045884;28;20097;-64
2023/09/02 02:49:18;;;;;;;19.45;11.13;;;12.50;99.90;;;;;;5044133;28;20496;-64
2023/09/02 02:51:44;;;;;;;18.88;11.93;;;12.40;99.90;;;;;;5044077;28;20044;-64
2023/09/02 02:54:09;;;;;;;14.82;10.00;;;12.40;99.90;;;;;;5052778;28;20039;-64
2023/09/02 02:56:35;;;;;;;16.08;9.55;;;12.40;99.90;;;;;;5062959;28;20037;-64
2023/09/02 02:59:00;;;;;;;17.95;10.57;;;12.40;99.90;;;;;;5059323;28;20240;-64
2023/09/02 03:01:26;;;;;;;19.90;11.13;;;12.40;99.90;;;;;;5059182;28;20052;-64
2023/09/02 03:03:52;;;;;;;19.85;10.70;;;12.40;99.90;;;;;;5043686;28;20534;-63
2023/09/02 03:06:21;;;;;;;14.27;9.18;;;12.40;99.90;;;;;;5031133;28;20483;-66
2023/09/02 03:08:47;;;;;;;15.90;10.55;;;12.50;99.90;;;;;;5058126;28;20068;-65
2023/09/02 03:11:13;;;;;;;19.50;11.48;;;12.40;99.90;;;;;;5044530;28;20101;-64
2023/09/02 03:13:39;;;;;;;17.00;10.15;;;12.40;99.90;;;;;;5045402;28;20037;-63
2023/09/02 03:16:05;;;;;;;14.98;9.70;;;12.40;99.90;;;;;;5043100;28;20492;-64
2023/09/02 03:18:32;;;;;;;13.20;8.32;;;12.30;99.90;;;;;;5027039;28;20565;-66
2023/09/02 03:21:02;;;;;;;18.45;10.00;;;12.30;99.90;;;;;;5043908;28;20196;-66
2023/09/02 03:23:27;;;;;;;16.38;10.52;;;12.30;99.90;;;;;;5056722;28;20120;-63
2023/09/02 03:25:53;;;;;;;17.92;11.15;;;12.30;99.90;;;;;;5042695;28;20132;-63
2023/09/02 03:28:19;;;;;;;19.98;10.68;;;12.30;99.90;;;;;;5043475;28;20052;-67
2023/09/02 03:30:45;;;;;;;19.73;11.70;;;12.30;99.90;;;;;;5027299;28;20408;-63
2023/09/02 03:33:14;;;;;;;22.38;12.40;;;12.20;99.90;;;;;;5043113;28;20041;-63
2023/09/02 03:35:40;;;;;;;21.15;11.90;;;12.20;99.90;;;;;;5041675;28;20536;-63
2023/09/02 03:38:06;;;;;;;24.65;14.30;;;12.20;99.90;;;;;;5041881;28;20143;-64
2023/09/02 03:40:32;;;;;;;24.75;14.20;;;12.20;99.90;;;;;;5064486;28;20055;-64
2023/09/02 03:42:58;;;;;;;24.80;14.45;;;12.20;99.90;;;;;;5064638;28;20119;-63
2023/09/02 03:45:24;;;;;;;25.80;14.23;;;12.20;99.90;;;;;;5062666;28;20189;-66
2023/09/02 03:47:49;;;;;;;28.42;14.82;;;12.20;99.90;;;;;;5062763;28;20051;-64
2023/09/02 03:50:24;;;;;;;26.88;14.27;;;12.30;99.90;;;;;;5048252;28;20812;-66
2023/09/02 03:52:49;;;;;;;22.65;12.80;;;12.30;99.90;;;;;;5044530;28;20041;-64
2023/09/02 03:55:15;;;;;;;26.33;15.15;;;12.30;99.90;;;;;;5025325;28;20143;-65
2023/09/02 03:57:40;;;;;;;25.05;14.45;;;12.30;99.90;;;;;;5022780;28;20635;-63
2023/09/02 04:00:07;;;;;;;26.02;15.32;;;12.30;99.90;;;;;;5024999;28;20487;-66
2023/09/02 04:02:33;;;;;;;28.10;15.80;;;12.30;99.90;;;;;;5069488;28;20144;-66
2023/09/02 04:04:58;;;;;;;30.45;16.85;;;12.30;99.90;;;;;;5045767;28;20160;-65
2023/09/02 04:07:24;;;;;;;26.67;15.43;;;12.40;99.90;;;;;;5061436;28;20055;-62
2023/09/02 04:09:50;;;;;;;27.00;14.82;;;12.40;99.90;;;;;;5052182;28;20119;-64
2023/09/02 04:12:16;;;;;;;30.23;17.08;;;12.40;99.90;;;;;;5047348;28;20536;-64
2023/09/02 04:14:41;;;;;;;30.60;17.25;;;12.50;99.90;;;;;;5047203;28;20076;-63
2023/09/02 04:17:07;;;;;;;34.15;16.92;;;12.50;99.90;;;;;;5050492;28;20040;-65
2023/09/02 04:19:33;;;;;;;32.75;17.15;;;12.50;99.90;;;;;;5050224;28;20063;-64
2023/09/02 04:21:58;;;;;;;29.05;16.88;;;12.50;99.90;;;;;;5067211;28;20062;-66
2023/09/02 04:24:24;;;;;;;31.30;17.35;;;12.50;99.90;;;;;;5055867;28;20090;-65
2023/09/02 04:26:51;;;;;;;28.77;17.50;;;12.60;99.90;;;;;;5047216;28;20512;-66
2023/09/02 04:29:16;;;;;;;29.52;17.02;;;12.50;99.90;;;;;;5055007;28;20041;-65
2023/09/02 04:31:42;;;;;;;30.73;18.38;;;12.60;99.90;;;;;;5048052;28;20037;-65
2023/09/02 04:34:07;;;;;;;31.05;18.40;;;12.50;99.90;;;;;;5029921;28;20159;-65
2023/09/02 04:36:33;;;;;;;31.40;18.35;;;12.50;99.90;;;;;;5031910;28;20043;-65
2023/09/02 04:38:58;;;;;;;31.42;19.50;;;12.50;99.90;;;;;;5048235;28;20037;-65
2023/09/02 04:41:25;;;;;;;29.20;18.08;;;12.60;99.90;;;;;;5066531;28;20467;-69
2023/09/02 04:43:50;;;;;;;33.13;17.75;;;12.60;99.90;;;;;;5067150;28;20526;-67
2023/09/02 04:46:16;;;;;;;33.42;18.33;;;12.60;99.90;;;;;;5065168;28;20064;-64
2023/09/02 04:48:42;;;;;;;27.38;17.33;;;12.60;99.90;;;;;;5068100;28;20438;-65
2023/09/02 04:51:08;;;;;;;27.65;16.85;;;12.60;99.90;;;;;;5066605;28;20072;-64
2023/09/02 04:53:33;;;;;;;26.33;15.73;;;12.60;99.90;;;;;;5056227;28;20093;-65
2023/09/02 04:56:02;;;;;;;27.08;16.38;;;12.70;99.90;;;;;;5066745;28;20040;-64
2023/09/02 04:58:27;;;;;;;31.30;16.45;;;12.70;99.90;;;;;;5049695;28;20519;-64
2023/09/02 05:00:53;;;;;;;25.00;16.63;;;12.70;99.90;;;;;;5047805;28;20092;-65
2023/09/02 05:03:22;;;;;;;30.33;17.35;;;12.70;99.90;;;;;;5047224;28;20179;-64
2023/09/02 05:05:47;;;;;;;28.38;16.98;;;12.70;99.90;;;;;;5046139;28;20049;-64
2023/09/02 05:08:13;;;;;;;27.25;16.10;;;12.80;99.90;;;;;;5048076;28;20063;-64
2023/09/02 05:10:38;;;;;;;28.17;17.10;;;12.80;99.90;;;;;;5066317;28;20086;-64
2023/09/02 05:13:04;;;;;;;32.63;17.95;;;12.80;99.90;;;;;;5065546;28;20093;-63
2023/09/02 05:15:29;;;;;;;28.23;16.30;;;12.80;99.90;;;;;;5058149;28;20700;-64
2023/09/02 05:17:58;;;;;;;24.80;16.52;;;12.80;99.90;;;;;;5047045;28;20174;-64
2023/09/02 05:20:24;;;;;;;29.42;16.33;;;12.80;99.90;;;;;;5040376;28;20091;-64
2023/09/02 05:22:49;;;;;;;24.50;15.60;;;12.80;99.90;;;;;;5046403;28;20067;-64
2023/09/02 05:25:18;;;;;;;31.08;17.83;;;12.80;99.90;;;;;;5044450;28;20076;-64
2023/09/02 05:27:48;;;;;;;27.45;16.45;;;12.80;99.90;;;;;;5027969;28;20478;-65
2023/09/02 05:30:13;;;;;;;33.20;17.08;;;12.90;99.90;;;;;;5044585;28;20059;-65
2023/09/02 05:32:39;;;;;;;27.75;16.63;;;12.90;99.90;;;;;;5045217;28;20560;-64
2023/09/02 05:35:04;;;;;;;27.20;17.50;;;12.90;99.90;;;;;;5047069;28;20803;-65
2023/09/02 05:37:30;;;;;;;28.00;17.42;;;12.90;99.90;;;;;;5045798;28;20436;-64
2023/09/02 05:39:56;;;;;;;28.52;18.02;;;12.80;99.90;;;;;;5060826;28;20080;-63
2023/09/02 05:42:21;;;;;;;27.45;17.83;;;12.80;99.90;;;;;;5046375;28;20036;-65
2023/09/02 05:44:47;;;;;;;33.60;19.48;;;12.90;99.90;;;;;;5048917;28;20124;-63
2023/09/02 05:47:12;;;;;;;33.45;19.02;;;12.90;99.90;;;;;;5066925;28;20451;-65
2023/09/02 05:49:38;;;;;;;30.23;19.30;;;12.90;99.90;;;;;;5065386;28;20399;-63
2023/09/02 05:52:05;;;;;;;28.02;18.98;;;13.00;99.90;;;;;;5047542;28;20457;-65
2023/09/02 05:54:31;;;;;;;31.25;19.58;;;13.20;99.90;;;;;;5051968;28;20055;-68
2023/09/02 05:56:57;;;;;;;31.13;20.55;;;13.30;99.90;;;;;;5046302;28;20078;-64
2023/09/02 05:59:22;;;;;;;30.42;18.60;;;13.40;99.90;;;;;;5045139;28;20041;-65
2023/09/02 06:01:51;;;;;;;28.35;18.00;;;13.60;99.90;;;;;;5065305;28;20040;-65
2023/09/02 06:04:16;;;;;;;28.42;18.02;;;13.70;99.90;;;;;;5064404;28;20135;-65
2023/09/02 06:06:42;;;;;;;28.73;19.52;;;13.80;99.90;;;;;;5066423;28;20496;-67
2023/09/02 06:09:10;;;;;;;31.52;18.85;;;13.90;99.90;;;;;;5056942;28;20052;-68
2023/09/02 06:11:35;;;;;;;30.17;19.67;;;14.00;99.90;;;;;;5044395;28;20052;-67
2023/09/02 06:14:01;;;;;;;33.97;20.27;;;14.00;99.90;;;;;;5046185;28;20041;-66
2023/09/02 06:16:28;;;;;;;27.58;18.95;;;14.20;99.90;;;;;;5046722;28;20503;-67
2023/09/02 06:18:54;;;;;;;29.35;19.83;;;14.30;99.90;;;;;;5062362;28;20047;-68
2023/09/02 06:21:20;;;;;;;32.47;18.73;;;14.30;99.90;;;;;;5053415;28;20033;-69
2023/09/02 06:23:47;;;;;;;29.25;18.27;;;14.30;99.90;;;;;;5043062;28;20049;-69
2023/09/02 06:26:13;;;;;;;29.90;19.80;;;14.40;99.90;;;;;;5041899;28;20040;-65
2023/09/02 06:28:39;;;;;;;31.17;19.95;;;14.40;99.90;;;;;;5045408;28;20044;-66
2023/09/02 06:31:09;;;;;;;29.75;19.27;;;14.40;99.90;;;;;;5042622;28;20045;-65
2023/09/02 06:33:35;;;;;;;29.73;20.10;;;14.50;99.90;;;;;;5078121;28;20167;-68
2023/09/02 06:36:12;;;;;;;32.38;20.40;;;14.60;99.90;;;;;;5056779;28;20054;-68
2023/09/02 06:38:38;;;;;;;35.97;22.35;;;14.70;99.90;;;;;;5061719;28;20036;-66
2023/09/02 06:41:17;;;;;;;30.65;20.70;;;14.70;99.90;;;;;;5043412;28;20048;-69
2023/09/02 06:43:44;;;;;;;31.65;21.70;;;14.80;99.90;;;;;;5025071;28;20033;-65
2023/09/02 06:46:19;;;;;;;31.33;21.27;;;15.00;99.90;;;;;;5045015;28;20041;-65
2023/09/02 06:48:46;;;;;;;30.92;21.20;;;15.10;99.90;;;;;;5044105;28;20040;-66
2023/09/02 06:51:12;;;;;;;33.15;22.35;;;15.30;99.90;;;;;;5044117;28;20032;-66
2023/09/02 06:53:39;;;;;;;31.83;21.17;;;15.30;99.90;;;;;;5075174;28;20037;-66
2023/09/02 06:56:14;;;;;;;31.92;21.20;;;15.40;99.90;;;;;;5044425;28;20050;-66
2023/09/02 06:58:42;;;;;;;35.70;23.45;;;15.50;99.90;;;;;;5042922;28;20043;-67
2023/09/02 07:01:18;;;;;;;34.00;22.00;;;15.50;99.90;;;;;;5042469;28;20500;-68
2023/09/02 07:03:44;;;;;;;36.00;23.40;;;15.60;99.90;;;;;;5041869;28;20059;-68
2023/09/02 07:06:15;;;;;;;34.05;23.40;;;15.70;99.90;;;;;;5043014;28;20459;-64
2023/09/02 07:08:43;;;;;;;29.95;22.23;;;15.70;99.90;;;;;;5048864;28;20040;-65
2023/09/02 07:11:09;;;;;;;33.97;22.42;;;15.80;99.90;;;;;;5047250;28;20044;-65
2023/09/02 07:13:36;;;;;;;34.53;22.20;;;15.90;99.90;;;;;;5050680;28;20094;-66
2023/09/02 07:16:03;;;;;;;35.47;24.08;;;16.00;99.90;;;;;;5053511;28;20042;-65
2023/09/02 07:18:29;;;;;;;34.80;22.25;;;16.10;99.90;;;;;;5041421;28;20041;-66
2023/09/02 07:21:08;;;;;;;33.78;22.45;;;16.30;99.90;;;;;;5043279;28;20048;-64
2023/09/02 07:23:34;;;;;;;35.63;23.85;;;16.40;99.90;;;;;;5046450;28;20119;-65
2023/09/02 07:26:01;;;;;;;34.72;22.25;;;16.40;99.90;;;;;;5065681;28;20143;-65
2023/09/02 07:28:31;;;;;;;33.35;22.40;;;16.40;99.90;;;;;;5047355;28;20044;-65
2023/09/02 07:30:58;;;;;;;32.10;22.58;;;16.40;99.90;;;;;;5040445;28;20042;-64
2023/09/02 07:33:24;;;;;;;32.78;22.70;;;16.40;99.90;;;;;;5043314;28;20048;-63
2023/09/02 07:35:50;;;;;;;35.78;24.80;;;16.50;99.90;;;;;;5063587;28;20048;-69
2023/09/02 07:38:16;;;;;;;33.78;24.50;;;16.50;99.90;;;;;;5049777;28;20303;-65
2023/09/02 07:40:41;;;;;;;30.58;22.40;;;16.60;99.90;;;;;;5063175;28;20040;-67
2023/09/02 07:43:07;;;;;;;36.58;23.30;;;16.60;99.90;;;;;;5042294;28;20114;-65
2023/09/02 07:45:32;;;;;;;33.63;22.02;;;16.60;99.90;;;;;;5043416;28;20040;-67
2023/09/02 07:47:58;;;;;;;33.03;24.15;;;16.70;99.90;;;;;;5027084;28;20049;-65
2023/09/02 07:50:24;;;;;;;33.25;23.45;;;16.80;99.90;;;;;;5043760;28;20483;-68
2023/09/02 07:52:49;;;;;;;32.08;22.60;;;16.80;99.90;;;;;;5043906;28;20460;-64
2023/09/02 07:55:15;;;;;;;35.53;23.88;;;16.90;99.90;;;;;;5060295;28;20084;-63
2023/09/02 07:57:40;;;;;;;30.85;22.50;;;17.10;99.90;;;;;;5064449;28;20048;-68
2023/09/02 08:00:10;;;;;;;35.10;23.05;;;17.10;99.90;;;;;;5034181;28;20063;-66
2023/09/02 08:02:36;;;;;;;31.52;23.05;;;17.20;99.90;;;;;;5044829;28;20661;-63
2023/09/02 08:05:01;;;;;;;33.33;23.17;;;17.30;99.90;;;;;;5056549;28;20067;-62
2023/09/02 08:07:27;;;;;;;32.22;22.00;;;17.30;99.90;;;;;;5065134;28;20052;-66
2023/09/02 08:09:52;;;;;;;31.88;21.55;;;17.40;99.90;;;;;;5061846;28;20048;-64
2023/09/02 08:12:18;;;;;;;35.17;23.08;;;17.50;99.90;;;;;;5062888;28;20040;-65
2023/09/02 08:14:44;;;;;;;32.13;21.35;;;17.50;99.90;;;;;;5061791;28;20041;-64
2023/09/02 08:17:09;;;;;;;29.35;21.42;;;17.60;99.90;;;;;;5026890;28;20045;-64
2023/09/02 08:19:36;;;;;;;32.30;21.83;;;17.60;99.90;;;;;;5043477;28;20128;-68
2023/09/02 08:22:02;;;;;;;30.08;21.10;;;17.70;99.90;;;;;;5044479;28;20045;-68
2023/09/02 08:24:28;;;;;;;31.20;22.52;;;17.90;99.90;;;;;;5026328;28;20051;-64
2023/09/02 08:26:54;;;;;;;30.55;21.63;;;18.20;99.90;;;;;;5043326;28;20095;-63
2023/09/02 08:29:19;;;;;;;30.73;21.08;;;18.30;99.90;;;;;;5043294;28;20053;-62
2023/09/02 08:31:45;;;;;;;31.73;20.63;;;18.40;99.90;;;;;;5024583;28;20045;-67
2023/09/02 08:34:11;;;;;;;29.25;20.10;;;18.50;99.90;;;;;;5039791;28;20217;-63
2023/09/02 08:36:39;;;;;;;26.65;17.95;;;18.80;99.90;;;;;;5043194;28;20705;-66
2023/09/02 08:39:05;;;;;;;23.55;17.40;;;19.30;99.90;;;;;;5050926;28;20048;-64
2023/09/02 08:41:35;;;;;;;28.02;21.05;;;19.90;99.90;;;;;;5047775;28;20118;-66
2023/09/02 08:44:02;;;;;;;28.60;20.58;;;20.30;99.90;;;;;;5061484;28;20661;-65
2023/09/02 08:46:31;;;;;;;28.33;20.15;;;20.30;99.90;;;;;;5064688;28;20591;-63
2023/09/02 08:48:58;;;;;;;32.17;19.45;;;20.10;99.90;;;;;;5062703;28;20037;-67
2023/09/02 08:51:25;;;;;;;30.55;19.70;;;19.90;99.90;;;;;;5061518;28;20032;-61
2023/09/02 08:53:53;;;;;;;30.65;20.55;;;19.70;99.90;;;;;;5064421;28;20557;-64
2023/09/02 08:56:19;;;;;;;31.27;21.48;;;19.60;99.90;;;;;;5065321;28;20055;-66
2023/09/02 08:58:46;;;;;;;28.77;20.35;;;19.50;99.90;;;;;;5065122;28;20049;-66
2023/09/02 09:01:17;;;;;;;31.50;20.50;;;19.50;99.90;;;;;;5066672;28;20041;-63
2023/09/02 09:03:47;;;;;;;35.33;20.58;;;19.50;99.90;;;;;;5048623;28;20425;-66
2023/09/02 09:06:13;;;;;;;30.75;19.05;;;19.50;99.90;;;;;;5026916;28;20416;-67
2023/09/02 09:08:40;;;;;;;29.08;17.80;;;19.40;99.90;;;;;;5033249;28;20103;-66
2023/09/02 09:11:07;;;;;;;26.80;18.35;;;19.40;99.90;;;;;;5067404;28;20076;-62
2023/09/02 09:13:35;;;;;;;29.95;18.70;;;19.50;99.90;;;;;;5066202;28;20040;-65
2023/09/02 09:16:03;;;;;;;27.75;18.38;;;19.60;99.90;;;;;;5066496;28;20236;-63
2023/09/02 09:18:29;;;;;;;25.52;17.45;;;19.70;99.90;;;;;;5046946;28;20075;-64
2023/09/02 09:20:54;;;;;;;24.92;16.55;;;19.70;99.90;;;;;;5047860;28;20045;-66
2023/09/02 09:23:20;;;;;;;28.20;18.98;;;19.80;99.90;;;;;;5046499;28;20056;-65
2023/09/02 09:25:49;;;;;;;28.65;18.98;;;19.70;99.90;;;;;;5046703;28;20103;-66
2023/09/02 09:28:15;;;;;;;27.63;18.90;;;19.70;99.90;;;;;;5029043;28;20068;-62
2023/09/02 09:30:41;;;;;;;27.70;18.90;;;19.60;99.90;;;;;;5035591;28;20497;-65
2023/09/02 09:33:07;;;;;;;26.80;18.27;;;19.60;99.90;;;;;;5051329;28;20498;-66
2023/09/02 09:35:33;;;;;;;27.52;17.10;;;19.60;99.90;;;;;;5066132;28;20055;-63
2023/09/02 09:38:00;;;;;;;23.02;15.43;;;19.60;99.90;;;;;;5082964;28;20045;-62
2023/09/02 09:40:39;;;;;;;29.00;16.00;;;19.50;99.90;;;;;;5045847;28;20120;-62
2023/09/02 09:43:16;;;;;;;28.50;15.85;;;19.40;99.90;;;;;;5056189;28;20090;-63
2023/09/02 09:45:50;;;;;;;22.20;16.05;;;19.30;99.90;;;;;;5045750;28;20052;-64
2023/09/02 09:48:16;;;;;;;25.45;16.83;;;19.10;99.90;;;;;;5045990;28;20430;-65
2023/09/02 09:50:42;;;;;;;29.70;17.08;;;19.00;99.90;;;;;;5039082;28;20125;-63
2023/09/02 09:53:09;;;;;;;26.10;16.60;;;19.00;99.90;;;;;;5067104;28;20070;-65
2023/09/02 09:55:36;;;;;;;22.27;16.10;;;18.90;99.90;;;;;;5045629;28;20045;-62
2023/09/02 09:58:03;;;;;;;26.65;16.48;;;18.80;99.90;;;;;;5028507;28;20049;-64
2023/09/02 10:00:29;;;;;;;26.48;15.50;;;18.80;99.90;;;;;;5045772;28;20446;-63
2023/09/02 10:02:57;;;;;;;23.40;15.90;;;18.70;99.90;;;;;;5028932;28;20067;-62
2023/09/02 10:05:27;;;;;;;24.27;16.08;;;18.70;99.90;;;;;;5043837;28;20060;-63
2023/09/02 10:08:04;;;;;;;26.13;16.02;;;18.80;99.90;;;;;;5046984;28;20048;-63
2023/09/02 10:10:31;;;;;;;27.00;16.25;;;19.00;99.90;;;;;;5044554;28;20045;-64
2023/09/02 10:12:58;;;;;;;27.95;15.18;;;19.10;99.90;;;;;;5044679;28;20041;-65
2023/09/02 10:15:25;;;;;;;32.05;15.95;;;19.30;99.90;;;;;;5046391;28;20045;-63
2023/09/02 10:17:56;;;;;;;26.85;15.73;;;19.40;99.90;;;;;;5065144;28;20075;-63
2023/09/02 10:20:25;;;;;;;22.35;16.25;;;19.60;99.90;;;;;;5045366;28;20045;-66
2023/09/02 10:22:51;;;;;;;26.00;15.73;;;19.60;99.90;;;;;;5045580;28;20052;-64
2023/09/02 10:25:24;;;;;;;26.10;15.32;;;19.70;99.90;;;;;;5059560;28;20435;-61
2023/09/02 10:28:10;;;;;;;19.08;14.02;;;19.80;99.90;;;;;;5065819;28;20044;-64
2023/09/02 10:30:43;;;;;;;25.55;13.00;;;19.80;99.90;;;;;;5052451;28;20037;-63
2023/09/02 10:33:28;;;;;;;19.30;12.60;;;19.70;99.90;;;;;;5030905;28;20045;-62
2023/09/02 10:36:00;;;;;;;19.38;12.38;;;19.60;99.90;;;;;;5064595;28;20052;-62
2023/09/02 10:38:28;;;;;;;21.30;12.20;;;19.50;99.90;;;;;;5046396;28;20040;-62
2023/09/02 10:41:09;;;;;;;20.50;12.77;;;19.40;99.90;;;;;;5064495;28;20048;-66
2023/09/02 10:43:36;;;;;;;20.67;13.18;;;19.40;99.90;;;;;;5062961;28;20052;-64
2023/09/02 10:46:03;;;;;;;20.20;12.90;;;19.50;99.90;;;;;;5064648;28;20045;-66
2023/09/02 10:48:29;;;;;;;21.33;11.88;;;19.60;99.90;;;;;;5047503;28;20048;-64
2023/09/02 10:50:55;;;;;;;19.35;11.93;;;19.70;99.90;;;;;;5064293;28;20040;-66
2023/09/02 10:53:50;;;;;;;17.88;11.02;;;19.70;99.90;;;;;;5047130;28;20037;-61
2023/09/02 10:56:26;;;;;;;;;;;19.80;99.90;;;;;;5063893;28;20048;-66
2023/09/02 10:58:51;;;;;;;16.02;10.70;;;19.80;99.90;;;;;;5065554;28;19917;-63
2023/09/02 11:01:17;;;;;;;18.33;11.20;;;19.90;99.90;;;;;;5064403;28;20048;-65
2023/09/02 11:03:52;;;;;;;18.27;11.73;;;20.10;99.90;;;;;;5062159;28;20423;-65
2023/09/02 11:06:17;;;;;;;17.67;10.82;;;20.20;99.90;;;;;;5097448;28;20048;-64
2023/09/02 11:08:47;;;;;;;18.60;10.80;;;20.30;99.90;;;;;;5060695;28;20091;-65
2023/09/02 11:11:12;;;;;;;17.90;10.32;;;20.40;99.90;;;;;;5045014;28;20204;-62
2023/09/02 11:14:06;;;;;;;20.25;10.65;;;20.60;99.90;;;;;;5044849;28;20584;-64
2023/09/02 11:16:32;;;;;;;17.23;10.27;;;20.70;99.90;;;;;;5023832;28;20049;-63
2023/09/02 11:19:00;;;;;;;16.30;10.13;;;20.80;99.90;;;;;;5024312;28;20041;-61
2023/09/02 11:21:42;;;;;;;17.95;10.23;;;20.90;99.90;;;;;;5031415;28;20048;-60
2023/09/02 11:24:21;;;;;;;19.67;10.75;;;21.00;99.90;;;;;;5057338;28;20480;-64
2023/09/02 11:26:58;;;;;;;17.75;10.23;;;21.00;99.90;;;;;;5044388;28;20052;-62
2023/09/02 11:29:29;;;;;;;16.60;8.93;;;20.90;99.90;;;;;;5043930;28;20037;-61
2023/09/02 11:31:58;;;;;;;14.93;8.65;;;20.80;99.90;;;;;;5024630;28;20485;-61
2023/09/02 11:34:26;;;;;;;12.57;8.55;;;20.70;99.90;;;;;;5023480;28;20057;-62
2023/09/02 11:36:53;;;;;;;16.02;8.57;;;20.50;99.90;;;;;;5038579;28;20134;-62
2023/09/02 11:39:19;;;;;;;16.50;8.80;;;20.50;99.90;;;;;;5076942;28;20395;-62
2023/09/02 11:41:44;;;;;;;14.80;8.45;;;20.50;99.90;;;;;;5043012;28;20045;-62
2023/09/02 11:44:13;;;;;;;16.55;9.55;;;20.50;99.90;;;;;;5044804;28;20044;-62
2023/09/02 11:46:39;;;;;;;15.15;7.53;;;20.60;99.90;;;;;;5057196;28;20492;-65
2023/09/02 11:49:12;;;;;;;15.73;7.85;;;20.70;99.90;;;;;;5063405;28;20204;-62
2023/09/02 11:51:38;;;;;;;15.88;7.55;;;20.80;99.90;;;;;;5084147;28;20040;-62
2023/09/02 11:54:04;;;;;;;12.77;5.97;;;20.90;99.90;;;;;;5045303;28;20470;-65
2023/09/02 11:56:30;;;;;;;11.48;6.80;;;21.10;99.90;;;;;;5043817;28;20151;-61
2023/09/02 11:58:55;;;;;;;13.63;6.40;;;21.20;99.90;;;;;;5027024;28;20217;-61
2023/09/02 12:01:21;;;;;;;14.38;6.78;;;21.20;99.90;;;;;;5053270;28;20055;-64
2023/09/02 12:03:47;;;;;;;10.30;5.45;;;21.20;99.90;;;;;;5064011;28;20467;-63
2023/09/02 12:06:13;;;;;;;9.98;5.47;;;21.30;99.90;;;;;;5063834;28;20511;-64
2023/09/02 12:08:38;;;;;;;11.25;5.82;;;21.30;99.90;;;;;;5057876;28;20048;-66
2023/09/02 12:11:04;;;;;;;11.70;5.80;;;21.30;99.90;;;;;;5064472;28;20486;-62
2023/09/02 12:13:31;;;;;;;10.73;5.50;;;21.40;99.90;;;;;;5062735;28;20043;-63
2023/09/02 12:15:57;;;;;;;11.68;5.80;;;21.40;99.90;;;;;;5062234;28;20040;-63
2023/09/02 12:18:24;;;;;;;12.07;5.35;;;21.40;99.90;;;;;;5063091;28;20122;-66
2023/09/02 12:20:50;;;;;;;12.75;5.40;;;21.30;99.90;;;;;;5064859;28;20051;-62
2023/09/02 12:23:17;;;;;;;11.07;5.55;;;21.30;99.90;;;;;;5064077;28;20496;-67
2023/09/02 12:25:59;;;;;;;12.43;5.57;;;21.30;99.90;;;;;;5039859;28;20118;-61
2023/09/02 12:28:29;;;;;;;13.00;5.22;;;21.40;99.90;;;;;;5063708;28;20051;-62
2023/09/02 12:30:55;;;;;;;10.65;5.32;;;21.40;99.90;;;;;;5049797;28;20037;-61
2023/09/02 12:33:21;;;;;;;11.63;5.28;;;21.40;99.90;;;;;;5049788;28;20102;-63